sensor_id;sensor_type;location;lat;lon;timestamp;P1;durP1;ratioP1;P2;durP2;ratioP2
80235;SDS011;69543;42.138;24.742;2023-05-23T00:01:32;2.40;;;2.20;;
80235;SDS011;69543;42.138;24.742;2023-05-23T00:04:01;2.37;;;2.17;;
80235;SDS011;69543;42.138;24.742;2023-05-23T00:06:27;2.78;;;2.30;;
80235;SDS011;69543;42.138;24.742;2023-05-23T00:08:52;2.35;;;2.15;;
80235;SDS011;69543;42.138;24.742;2023-05-23T00:11:18;2.22;;;2.03;;
80235;SDS011;69543;42.138;24.742;2023-05-23T00:13:47;2.40;;;2.20;;
80235;SDS011;69543;42.138;24.742;2023-05-23T00:16:15;3.40;;;2.30;;
80235;SDS011;69543;42.138;24.742;2023-05-23T00:18:41;2.70;;;2.40;;
80235;SDS011;69543;42.138;24.742;2023-05-23T00:21:07;2.47;;;2.08;;
80235;SDS011;69543;42.138;24.742;2023-05-23T00:23:33;2.30;;;2.10;;
80235;SDS011;69543;42.138;24.742;2023-05-23T00:25:59;2.90;;;2.22;;
80235;SDS011;69543;42.138;24.742;2023-05-23T00:28:25;2.42;;;2.20;;
80235;SDS011;69543;42.138;24.742;2023-05-23T00:30:51;2.50;;;2.28;;
80235;SDS011;69543;42.138;24.742;2023-05-23T00:33:17;3.20;;;2.33;;
80235;SDS011;69543;42.138;24.742;2023-05-23T00:35:46;2.75;;;2.28;;
80235;SDS011;69543;42.138;24.742;2023-05-23T00:38:12;2.40;;;2.20;;
80235;SDS011;69543;42.138;24.742;2023-05-23T00:40:38;3.20;;;2.17;;
80235;SDS011;69543;42.138;24.742;2023-05-23T00:43:04;2.38;;;2.13;;
80235;SDS011;69543;42.138;24.742;2023-05-23T00:45:30;2.65;;;2.30;;
80235;SDS011;69543;42.138;24.742;2023-05-23T00:47:56;2.45;;;2.25;;
80235;SDS011;69543;42.138;24.742;2023-05-23T00:50:23;2.67;;;2.08;;
80235;SDS011;69543;42.138;24.742;2023-05-23T00:52:53;2.20;;;2.00;;
80235;SDS011;69543;42.138;24.742;2023-05-23T00:55:19;2.97;;;2.35;;
80235;SDS011;69543;42.138;24.742;2023-05-23T00:57:45;2.28;;;2.08;;
80235;SDS011;69543;42.138;24.742;2023-05-23T01:00:11;2.40;;;1.98;;
80235;SDS011;69543;42.138;24.742;2023-05-23T01:02:38;2.47;;;2.22;;
80235;SDS011;69543;42.138;24.742;2023-05-23T01:05:09;2.40;;;2.20;;
80235;SDS011;69543;42.138;24.742;2023-05-23T01:07:38;2.85;;;2.28;;
80235;SDS011;69543;42.138;24.742;2023-05-23T01:10:04;2.38;;;2.08;;
80235;SDS011;69543;42.138;24.742;2023-05-23T01:12:44;2.50;;;2.05;;
80235;SDS011;69543;42.138;24.742;2023-05-23T01:15:18;3.42;;;2.28;;
80235;SDS011;69543;42.138;24.742;2023-05-23T01:17:54;2.42;;;2.20;;
80235;SDS011;69543;42.138;24.742;2023-05-23T01:20:32;2.58;;;2.33;;
80235;SDS011;69543;42.138;24.742;2023-05-23T01:28:51;2.33;;;2.05;;
80235;SDS011;69543;42.138;24.742;2023-05-23T01:31:20;2.22;;;2.03;;
80235;SDS011;69543;42.138;24.742;2023-05-23T01:33:48;2.13;;;2.00;;
80235;SDS011;69543;42.138;24.742;2023-05-23T01:36:17;2.40;;;2.20;;
80235;SDS011;69543;42.138;24.742;2023-05-23T01:38:43;2.55;;;2.30;;
80235;SDS011;69543;42.138;24.742;2023-05-23T01:41:09;2.33;;;2.13;;
80235;SDS011;69543;42.138;24.742;2023-05-23T01:43:34;2.10;;;1.90;;
80235;SDS011;69543;42.138;24.742;2023-05-23T01:46:00;2.63;;;2.25;;
80235;SDS011;69543;42.138;24.742;2023-05-23T01:48:28;2.88;;;2.38;;
80235;SDS011;69543;42.138;24.742;2023-05-23T01:50:55;2.83;;;2.30;;
80235;SDS011;69543;42.138;24.742;2023-05-23T01:53:21;2.20;;;2.00;;
80235;SDS011;69543;42.138;24.742;2023-05-23T01:55:47;2.40;;;2.20;;
80235;SDS011;69543;42.138;24.742;2023-05-23T01:58:14;2.58;;;2.30;;
80235;SDS011;69543;42.138;24.742;2023-05-23T02:00:40;2.40;;;2.20;;
80235;SDS011;69543;42.138;24.742;2023-05-23T02:03:05;3.03;;;2.22;;
80235;SDS011;69543;42.138;24.742;2023-05-23T02:05:31;2.42;;;2.22;;
80235;SDS011;69543;42.138;24.742;2023-05-23T02:07:57;2.65;;;2.05;;
80235;SDS011;69543;42.138;24.742;2023-05-23T02:10:22;2.47;;;2.28;;
80235;SDS011;69543;42.138;24.742;2023-05-23T02:12:48;2.97;;;2.42;;
80235;SDS011;69543;42.138;24.742;2023-05-23T02:15:13;2.45;;;2.13;;
80235;SDS011;69543;42.138;24.742;2023-05-23T02:17:40;2.50;;;2.30;;
80235;SDS011;69543;42.138;24.742;2023-05-23T02:20:07;2.10;;;1.90;;
80235;SDS011;69543;42.138;24.742;2023-05-23T02:22:34;2.28;;;2.08;;
80235;SDS011;69543;42.138;24.742;2023-05-23T02:25:00;2.45;;;2.22;;
80235;SDS011;69543;42.138;24.742;2023-05-23T02:27:26;2.47;;;2.28;;
80235;SDS011;69543;42.138;24.742;2023-05-23T02:29:51;2.30;;;1.85;;
80235;SDS011;69543;42.138;24.742;2023-05-23T02:32:17;2.97;;;2.28;;
80235;SDS011;69543;42.138;24.742;2023-05-23T02:34:43;2.30;;;2.10;;
80235;SDS011;69543;42.138;24.742;2023-05-23T02:37:10;3.08;;;2.40;;
80235;SDS011;69543;42.138;24.742;2023-05-23T02:39:37;2.60;;;2.40;;
80235;SDS011;69543;42.138;24.742;2023-05-23T02:42:03;2.60;;;2.40;;
80235;SDS011;69543;42.138;24.742;2023-05-23T02:44:29;2.50;;;2.10;;
80235;SDS011;69543;42.138;24.742;2023-05-23T02:46:55;2.00;;;1.88;;
80235;SDS011;69543;42.138;24.742;2023-05-23T02:49:20;2.55;;;2.35;;
80235;SDS011;69543;42.138;24.742;2023-05-23T02:51:46;2.63;;;2.42;;
80235;SDS011;69543;42.138;24.742;2023-05-23T02:54:11;2.20;;;2.00;;
80235;SDS011;69543;42.138;24.742;2023-05-23T02:56:37;2.58;;;2.05;;
80235;SDS011;69543;42.138;24.742;2023-05-23T02:59:03;2.58;;;2.38;;
80235;SDS011;69543;42.138;24.742;2023-05-23T03:01:28;2.53;;;2.10;;
80235;SDS011;69543;42.138;24.742;2023-05-23T03:03:54;2.40;;;2.20;;
80235;SDS011;69543;42.138;24.742;2023-05-23T03:06:20;2.45;;;2.25;;
80235;SDS011;69543;42.138;24.742;2023-05-23T03:08:46;2.50;;;2.30;;
80235;SDS011;69543;42.138;24.742;2023-05-23T03:11:12;2.35;;;2.00;;
80235;SDS011;69543;42.138;24.742;2023-05-23T03:13:38;2.35;;;2.08;;
80235;SDS011;69543;42.138;24.742;2023-05-23T03:16:03;2.45;;;2.25;;
80235;SDS011;69543;42.138;24.742;2023-05-23T03:18:29;2.65;;;2.20;;
80235;SDS011;69543;42.138;24.742;2023-05-23T03:20:55;2.30;;;2.10;;
80235;SDS011;69543;42.138;24.742;2023-05-23T03:23:20;2.05;;;1.90;;
80235;SDS011;69543;42.138;24.742;2023-05-23T03:25:46;4.18;;;2.33;;
80235;SDS011;69543;42.138;24.742;2023-05-23T03:28:13;2.45;;;2.25;;
80235;SDS011;69543;42.138;24.742;2023-05-23T03:30:39;2.30;;;2.10;;
80235;SDS011;69543;42.138;24.742;2023-05-23T03:33:04;2.22;;;2.03;;
80235;SDS011;69543;42.138;24.742;2023-05-23T03:35:31;2.20;;;2.00;;
80235;SDS011;69543;42.138;24.742;2023-05-23T03:37:57;2.25;;;2.05;;
80235;SDS011;69543;42.138;24.742;2023-05-23T03:40:22;3.65;;;2.55;;
80235;SDS011;69543;42.138;24.742;2023-05-23T03:42:48;5.32;;;3.50;;
80235;SDS011;69543;42.138;24.742;2023-05-23T03:45:30;6.22;;;4.20;;
80235;SDS011;69543;42.138;24.742;2023-05-23T03:47:56;7.72;;;4.30;;
80235;SDS011;69543;42.138;24.742;2023-05-23T03:50:22;5.47;;;4.10;;
80235;SDS011;69543;42.138;24.742;2023-05-23T03:52:47;5.03;;;3.70;;
80235;SDS011;69543;42.138;24.742;2023-05-23T03:55:13;8.20;;;3.80;;
80235;SDS011;69543;42.138;24.742;2023-05-23T03:57:39;5.78;;;3.58;;
80235;SDS011;69543;42.138;24.742;2023-05-23T04:00:05;5.85;;;3.45;;
80235;SDS011;69543;42.138;24.742;2023-05-23T04:02:36;3.58;;;3.20;;
80235;SDS011;69543;42.138;24.742;2023-05-23T04:05:03;4.25;;;3.28;;
80235;SDS011;69543;42.138;24.742;2023-05-23T04:07:30;5.93;;;3.25;;
80235;SDS011;69543;42.138;24.742;2023-05-23T04:09:58;3.83;;;3.10;;
80235;SDS011;69543;42.138;24.742;2023-05-23T04:12:25;3.70;;;2.83;;
80235;SDS011;69543;42.138;24.742;2023-05-23T04:14:50;3.58;;;2.70;;
80235;SDS011;69543;42.138;24.742;2023-05-23T04:17:16;3.15;;;2.80;;
80235;SDS011;69543;42.138;24.742;2023-05-23T04:19:42;5.88;;;2.75;;
80235;SDS011;69543;42.138;24.742;2023-05-23T04:22:08;3.75;;;2.42;;
80235;SDS011;69543;42.138;24.742;2023-05-23T04:24:34;4.20;;;2.80;;
80235;SDS011;69543;42.138;24.742;2023-05-23T04:27:01;3.78;;;3.00;;
80235;SDS011;69543;42.138;24.742;2023-05-23T04:29:26;4.25;;;3.10;;
80235;SDS011;69543;42.138;24.742;2023-05-23T04:31:55;3.80;;;3.15;;
80235;SDS011;69543;42.138;24.742;2023-05-23T04:34:21;4.47;;;3.53;;
80235;SDS011;69543;42.138;24.742;2023-05-23T04:36:47;5.63;;;3.50;;
80235;SDS011;69543;42.138;24.742;2023-05-23T04:39:13;5.88;;;3.30;;
80235;SDS011;69543;42.138;24.742;2023-05-23T04:41:39;5.18;;;3.17;;
80235;SDS011;69543;42.138;24.742;2023-05-23T04:44:06;7.55;;;3.40;;
80235;SDS011;69543;42.138;24.742;2023-05-23T04:46:34;5.22;;;3.03;;
80235;SDS011;69543;42.138;24.742;2023-05-23T04:49:00;7.07;;;3.50;;
80235;SDS011;69543;42.138;24.742;2023-05-23T04:51:28;6.57;;;3.60;;
80235;SDS011;69543;42.138;24.742;2023-05-23T04:53:53;4.65;;;3.30;;
80235;SDS011;69543;42.138;24.742;2023-05-23T04:56:19;6.78;;;3.70;;
80235;SDS011;69543;42.138;24.742;2023-05-23T04:58:46;11.50;;;3.63;;
80235;SDS011;69543;42.138;24.742;2023-05-23T05:01:12;7.90;;;3.63;;
80235;SDS011;69543;42.138;24.742;2023-05-23T05:03:38;4.18;;;3.13;;
80235;SDS011;69543;42.138;24.742;2023-05-23T05:06:04;6.75;;;3.60;;
80235;SDS011;69543;42.138;24.742;2023-05-23T05:08:30;4.20;;;3.40;;
80235;SDS011;69543;42.138;24.742;2023-05-23T05:10:56;4.78;;;3.45;;
80235;SDS011;69543;42.138;24.742;2023-05-23T05:13:22;5.35;;;3.40;;
80235;SDS011;69543;42.138;24.742;2023-05-23T05:15:48;3.88;;;3.30;;
80235;SDS011;69543;42.138;24.742;2023-05-23T05:18:13;4.28;;;2.85;;
80235;SDS011;69543;42.138;24.742;2023-05-23T05:20:40;5.85;;;3.00;;
80235;SDS011;69543;42.138;24.742;2023-05-23T05:26:26;4.65;;;2.88;;
80235;SDS011;69543;42.138;24.742;2023-05-23T05:28:52;4.90;;;3.40;;
80235;SDS011;69543;42.138;24.742;2023-05-23T05:31:17;4.10;;;2.90;;
80235;SDS011;69543;42.138;24.742;2023-05-23T05:33:43;3.22;;;2.60;;
80235;SDS011;69543;42.138;24.742;2023-05-23T05:36:09;3.70;;;2.90;;
80235;SDS011;69543;42.138;24.742;2023-05-23T05:38:35;3.90;;;2.85;;
80235;SDS011;69543;42.138;24.742;2023-05-23T05:41:01;5.13;;;2.75;;
80235;SDS011;69543;42.138;24.742;2023-05-23T05:43:27;4.43;;;2.35;;
80235;SDS011;69543;42.138;24.742;2023-05-23T05:45:53;3.25;;;2.53;;
80235;SDS011;69543;42.138;24.742;2023-05-23T05:48:24;4.70;;;2.60;;
80235;SDS011;69543;42.138;24.742;2023-05-23T05:53:55;4.18;;;2.47;;
80235;SDS011;69543;42.138;24.742;2023-05-23T05:56:21;3.38;;;2.70;;
80235;SDS011;69543;42.138;24.742;2023-05-23T05:58:47;4.50;;;2.60;;
80235;SDS011;69543;42.138;24.742;2023-05-23T06:07:36;2.90;;;2.45;;
80235;SDS011;69543;42.138;24.742;2023-05-23T06:10:02;3.90;;;2.85;;
80235;SDS011;69543;42.138;24.742;2023-05-23T06:12:28;4.25;;;2.70;;
80235;SDS011;69543;42.138;24.742;2023-05-23T06:14:53;3.28;;;2.38;;
80235;SDS011;69543;42.138;24.742;2023-05-23T06:17:19;3.20;;;2.63;;
80235;SDS011;69543;42.138;24.742;2023-05-23T06:19:45;3.25;;;2.70;;
80235;SDS011;69543;42.138;24.742;2023-05-23T06:22:10;3.40;;;2.38;;
80235;SDS011;69543;42.138;24.742;2023-05-23T06:24:36;3.55;;;2.53;;
80235;SDS011;69543;42.138;24.742;2023-05-23T06:27:17;2.75;;;2.47;;
80235;SDS011;69543;42.138;24.742;2023-05-23T06:29:43;4.10;;;2.50;;
80235;SDS011;69543;42.138;24.742;2023-05-23T06:32:08;4.10;;;3.03;;
80235;SDS011;69543;42.138;24.742;2023-05-23T06:34:34;5.82;;;3.50;;
80235;SDS011;69543;42.138;24.742;2023-05-23T06:36:59;4.68;;;2.80;;
80235;SDS011;69543;42.138;24.742;2023-05-23T06:39:25;2.90;;;2.60;;
80235;SDS011;69543;42.138;24.742;2023-05-23T06:54:58;3.17;;;2.33;;
80235;SDS011;69543;42.138;24.742;2023-05-23T06:57:24;3.22;;;2.35;;
80235;SDS011;69543;42.138;24.742;2023-05-23T07:03:32;5.00;;;2.60;;
80235;SDS011;69543;42.138;24.742;2023-05-23T07:18:22;2.90;;;2.60;;
80235;SDS011;69543;42.138;24.742;2023-05-23T07:21:07;3.70;;;2.63;;
80235;SDS011;69543;42.138;24.742;2023-05-23T07:23:34;4.05;;;2.53;;
80235;SDS011;69543;42.138;24.742;2023-05-23T07:26:20;4.93;;;2.58;;
80235;SDS011;69543;42.138;24.742;2023-05-23T07:28:57;3.97;;;2.90;;
80235;SDS011;69543;42.138;24.742;2023-05-23T07:34:14;2.97;;;2.67;;
80235;SDS011;69543;42.138;24.742;2023-05-23T07:36:39;3.55;;;2.63;;
80235;SDS011;69543;42.138;24.742;2023-05-23T07:39:06;3.17;;;2.65;;
80235;SDS011;69543;42.138;24.742;2023-05-23T07:41:32;4.10;;;3.10;;
80235;SDS011;69543;42.138;24.742;2023-05-23T07:44:03;2.65;;;2.45;;
80235;SDS011;69543;42.138;24.742;2023-05-23T07:47:01;3.20;;;2.63;;
80235;SDS011;69543;42.138;24.742;2023-05-23T07:49:36;3.65;;;2.70;;
80235;SDS011;69543;42.138;24.742;2023-05-23T07:52:02;3.65;;;2.80;;
80235;SDS011;69543;42.138;24.742;2023-05-23T07:54:28;3.53;;;2.60;;
80235;SDS011;69543;42.138;24.742;2023-05-23T07:56:53;3.90;;;3.03;;
80235;SDS011;69543;42.138;24.742;2023-05-23T07:59:22;3.60;;;2.97;;
80235;SDS011;69543;42.138;24.742;2023-05-23T08:02:02;4.13;;;3.10;;
80235;SDS011;69543;42.138;24.742;2023-05-23T08:04:28;3.08;;;2.63;;
80235;SDS011;69543;42.138;24.742;2023-05-23T08:06:59;4.38;;;2.85;;
80235;SDS011;69543;42.138;24.742;2023-05-23T08:09:32;4.15;;;2.90;;
80235;SDS011;69543;42.138;24.742;2023-05-23T08:11:58;4.30;;;3.10;;
80235;SDS011;69543;42.138;24.742;2023-05-23T08:17:46;3.35;;;2.80;;
80235;SDS011;69543;42.138;24.742;2023-05-23T08:23:34;3.00;;;2.63;;
80235;SDS011;69543;42.138;24.742;2023-05-23T08:26:00;3.13;;;2.50;;
80235;SDS011;69543;42.138;24.742;2023-05-23T08:32:07;3.00;;;2.63;;
80235;SDS011;69543;42.138;24.742;2023-05-23T08:37:59;3.50;;;2.90;;
80235;SDS011;69543;42.138;24.742;2023-05-23T08:40:25;3.85;;;2.90;;
80235;SDS011;69543;42.138;24.742;2023-05-23T08:42:54;3.72;;;3.00;;
80235;SDS011;69543;42.138;24.742;2023-05-23T08:45:20;4.82;;;2.92;;
80235;SDS011;69543;42.138;24.742;2023-05-23T08:47:46;3.42;;;2.83;;
80235;SDS011;69543;42.138;24.742;2023-05-23T08:50:18;3.03;;;2.60;;
80235;SDS011;69543;42.138;24.742;2023-05-23T08:52:49;3.53;;;2.60;;
80235;SDS011;69543;42.138;24.742;2023-05-23T08:55:24;3.28;;;2.60;;
80235;SDS011;69543;42.138;24.742;2023-05-23T08:57:52;4.70;;;3.08;;
80235;SDS011;69543;42.138;24.742;2023-05-23T09:00:19;3.30;;;2.90;;
80235;SDS011;69543;42.138;24.742;2023-05-23T09:02:46;5.22;;;3.03;;
80235;SDS011;69543;42.138;24.742;2023-05-23T09:08:50;3.00;;;2.70;;
80235;SDS011;69543;42.138;24.742;2023-05-23T09:15:12;4.00;;;2.67;;
80235;SDS011;69543;42.138;24.742;2023-05-23T09:17:39;4.32;;;2.90;;
80235;SDS011;69543;42.138;24.742;2023-05-23T09:23:32;3.70;;;2.95;;
80235;SDS011;69543;42.138;24.742;2023-05-23T09:26:02;3.60;;;2.75;;
80235;SDS011;69543;42.138;24.742;2023-05-23T09:34:58;3.75;;;2.88;;
80235;SDS011;69543;42.138;24.742;2023-05-23T09:40:57;4.15;;;2.97;;
80235;SDS011;69543;42.138;24.742;2023-05-23T09:43:23;4.45;;;3.17;;
80235;SDS011;69543;42.138;24.742;2023-05-23T09:45:49;3.85;;;3.00;;
80235;SDS011;69543;42.138;24.742;2023-05-23T09:48:16;4.60;;;3.03;;
80235;SDS011;69543;42.138;24.742;2023-05-23T10:04:29;3.95;;;2.90;;
80235;SDS011;69543;42.138;24.742;2023-05-23T10:09:30;2.60;;;2.40;;
80235;SDS011;69543;42.138;24.742;2023-05-23T10:18:44;3.45;;;2.80;;
80235;SDS011;69543;42.138;24.742;2023-05-23T10:21:28;4.60;;;3.08;;
80235;SDS011;69543;42.138;24.742;2023-05-23T10:26:27;5.32;;;2.75;;
80235;SDS011;69543;42.138;24.742;2023-05-23T10:28:53;3.55;;;2.70;;
80235;SDS011;69543;42.138;24.742;2023-05-23T10:31:20;3.13;;;2.80;;
80235;SDS011;69543;42.138;24.742;2023-05-23T10:47:05;3.00;;;2.70;;
80235;SDS011;69543;42.138;24.742;2023-05-23T10:49:43;4.20;;;2.92;;
80235;SDS011;69543;42.138;24.742;2023-05-23T10:52:11;3.40;;;3.10;;
80235;SDS011;69543;42.138;24.742;2023-05-23T10:54:49;3.08;;;2.78;;
80235;SDS011;69543;42.138;24.742;2023-05-23T10:57:25;2.83;;;2.47;;
80235;SDS011;69543;42.138;24.742;2023-05-23T10:59:51;3.50;;;2.78;;
80235;SDS011;69543;42.138;24.742;2023-05-23T11:02:18;4.97;;;3.20;;
80235;SDS011;69543;42.138;24.742;2023-05-23T11:05:08;4.05;;;2.75;;
80235;SDS011;69543;42.138;24.742;2023-05-23T11:14:30;3.50;;;2.60;;
80235;SDS011;69543;42.138;24.742;2023-05-23T11:17:47;3.58;;;2.75;;
80235;SDS011;69543;42.138;24.742;2023-05-23T11:19:55;3.13;;;2.78;;
80235;SDS011;69543;42.138;24.742;2023-05-23T11:22:30;4.85;;;3.20;;
80235;SDS011;69543;42.138;24.742;2023-05-23T11:24:57;4.30;;;3.13;;
80235;SDS011;69543;42.138;24.742;2023-05-23T11:30:20;3.05;;;2.70;;
80235;SDS011;69543;42.138;24.742;2023-05-23T11:32:51;3.47;;;3.03;;
80235;SDS011;69543;42.138;24.742;2023-05-23T11:35:19;3.28;;;2.97;;
80235;SDS011;69543;42.138;24.742;2023-05-23T11:37:46;7.28;;;3.40;;
80235;SDS011;69543;42.138;24.742;2023-05-23T11:40:24;3.38;;;3.08;;
80235;SDS011;69543;42.138;24.742;2023-05-23T11:42:50;4.47;;;3.38;;
80235;SDS011;69543;42.138;24.742;2023-05-23T11:45:23;4.25;;;3.40;;
80235;SDS011;69543;42.138;24.742;2023-05-23T11:47:50;3.65;;;3.13;;
80235;SDS011;69543;42.138;24.742;2023-05-23T11:50:16;5.88;;;3.60;;
80235;SDS011;69543;42.138;24.742;2023-05-23T11:52:42;3.67;;;3.17;;
80235;SDS011;69543;42.138;24.742;2023-05-23T11:55:08;7.70;;;3.47;;
80235;SDS011;69543;42.138;24.742;2023-05-23T11:57:38;4.22;;;3.13;;
80235;SDS011;69543;42.138;24.742;2023-05-23T12:00:07;3.47;;;3.15;;
80235;SDS011;69543;42.138;24.742;2023-05-23T12:02:40;5.60;;;3.50;;
80235;SDS011;69543;42.138;24.742;2023-05-23T12:05:07;4.70;;;3.67;;
80235;SDS011;69543;42.138;24.742;2023-05-23T12:13:51;5.60;;;3.35;;
80235;SDS011;69543;42.138;24.742;2023-05-23T12:16:17;6.50;;;3.42;;
80235;SDS011;69543;42.138;24.742;2023-05-23T12:18:43;6.50;;;3.17;;
80235;SDS011;69543;42.138;24.742;2023-05-23T12:21:08;4.15;;;3.40;;
80235;SDS011;69543;42.138;24.742;2023-05-23T12:23:34;3.75;;;3.35;;
80235;SDS011;69543;42.138;24.742;2023-05-23T12:26:02;5.05;;;3.28;;
80235;SDS011;69543;42.138;24.742;2023-05-23T12:28:48;3.67;;;3.10;;
80235;SDS011;69543;42.138;24.742;2023-05-23T12:31:31;4.10;;;3.10;;
80235;SDS011;69543;42.138;24.742;2023-05-23T12:34:04;4.72;;;3.30;;
80235;SDS011;69543;42.138;24.742;2023-05-23T12:36:30;4.75;;;3.10;;
80235;SDS011;69543;42.138;24.742;2023-05-23T12:39:03;4.18;;;3.28;;
80235;SDS011;69543;42.138;24.742;2023-05-23T12:41:30;3.88;;;3.20;;
80235;SDS011;69543;42.138;24.742;2023-05-23T12:43:57;4.63;;;3.45;;
80235;SDS011;69543;42.138;24.742;2023-05-23T12:46:24;4.30;;;3.08;;
80235;SDS011;69543;42.138;24.742;2023-05-23T12:48:52;5.40;;;3.42;;
80235;SDS011;69543;42.138;24.742;2023-05-23T12:52:04;5.07;;;3.40;;
80235;SDS011;69543;42.138;24.742;2023-05-23T12:54:31;5.00;;;3.30;;
80235;SDS011;69543;42.138;24.742;2023-05-23T12:56:56;5.30;;;3.13;;
80235;SDS011;69543;42.138;24.742;2023-05-23T13:02:59;5.30;;;3.40;;
80235;SDS011;69543;42.138;24.742;2023-05-23T13:05:55;4.28;;;3.08;;
80235;SDS011;69543;42.138;24.742;2023-05-23T13:08:21;4.13;;;3.22;;
80235;SDS011;69543;42.138;24.742;2023-05-23T13:10:48;5.13;;;3.33;;
80235;SDS011;69543;42.138;24.742;2023-05-23T13:13:13;3.85;;;3.40;;
80235;SDS011;69543;42.138;24.742;2023-05-23T13:15:39;5.75;;;3.30;;
80235;SDS011;69543;42.138;24.742;2023-05-23T13:18:05;4.03;;;3.10;;
80235;SDS011;69543;42.138;24.742;2023-05-23T13:20:31;4.40;;;3.35;;
80235;SDS011;69543;42.138;24.742;2023-05-23T13:22:58;4.13;;;3.40;;
80235;SDS011;69543;42.138;24.742;2023-05-23T13:25:29;4.50;;;3.25;;
80235;SDS011;69543;42.138;24.742;2023-05-23T13:28:42;4.30;;;3.50;;
80235;SDS011;69543;42.138;24.742;2023-05-23T13:31:19;4.57;;;3.25;;
80235;SDS011;69543;42.138;24.742;2023-05-23T13:37:07;5.28;;;3.65;;
80235;SDS011;69543;42.138;24.742;2023-05-23T13:39:32;6.13;;;3.70;;
80235;SDS011;69543;42.138;24.742;2023-05-23T13:41:58;5.07;;;3.38;;
80235;SDS011;69543;42.138;24.742;2023-05-23T13:44:24;3.60;;;3.30;;
80235;SDS011;69543;42.138;24.742;2023-05-23T13:46:49;5.28;;;3.50;;
80235;SDS011;69543;42.138;24.742;2023-05-23T13:49:15;4.85;;;3.60;;
80235;SDS011;69543;42.138;24.742;2023-05-23T13:55:06;4.82;;;3.80;;
80235;SDS011;69543;42.138;24.742;2023-05-23T13:57:33;4.53;;;3.97;;
80235;SDS011;69543;42.138;24.742;2023-05-23T13:59:58;4.50;;;3.63;;
80235;SDS011;69543;42.138;24.742;2023-05-23T14:02:24;5.60;;;3.80;;
80235;SDS011;69543;42.138;24.742;2023-05-23T14:04:51;5.10;;;3.65;;
80235;SDS011;69543;42.138;24.742;2023-05-23T14:10:39;3.90;;;3.30;;
80235;SDS011;69543;42.138;24.742;2023-05-23T14:13:05;4.72;;;3.63;;
80235;SDS011;69543;42.138;24.742;2023-05-23T14:15:31;8.00;;;3.78;;
80235;SDS011;69543;42.138;24.742;2023-05-23T14:21:11;4.50;;;3.38;;
80235;SDS011;69543;42.138;24.742;2023-05-23T14:23:37;3.97;;;3.50;;
80235;SDS011;69543;42.138;24.742;2023-05-23T14:26:02;4.93;;;3.63;;
80235;SDS011;69543;42.138;24.742;2023-05-23T14:28:28;4.95;;;3.70;;
80235;SDS011;69543;42.138;24.742;2023-05-23T14:30:54;5.20;;;3.58;;
80235;SDS011;69543;42.138;24.742;2023-05-23T14:33:20;4.03;;;3.17;;
80235;SDS011;69543;42.138;24.742;2023-05-23T14:35:46;3.72;;;3.17;;
80235;SDS011;69543;42.138;24.742;2023-05-23T14:38:14;3.70;;;3.17;;
80235;SDS011;69543;42.138;24.742;2023-05-23T14:40:39;3.85;;;3.30;;
80235;SDS011;69543;42.138;24.742;2023-05-23T14:43:23;4.95;;;3.28;;
80235;SDS011;69543;42.138;24.742;2023-05-23T14:45:48;4.22;;;3.40;;
80235;SDS011;69543;42.138;24.742;2023-05-23T14:48:14;3.85;;;3.50;;
80235;SDS011;69543;42.138;24.742;2023-05-23T14:50:39;3.95;;;3.15;;
80235;SDS011;69543;42.138;24.742;2023-05-23T14:56:12;5.07;;;3.58;;
80235;SDS011;69543;42.138;24.742;2023-05-23T14:58:37;4.40;;;3.55;;
80235;SDS011;69543;42.138;24.742;2023-05-23T15:01:05;4.70;;;3.55;;
80235;SDS011;69543;42.138;24.742;2023-05-23T15:03:31;4.28;;;3.38;;
80235;SDS011;69543;42.138;24.742;2023-05-23T15:05:57;4.03;;;3.08;;
80235;SDS011;69543;42.138;24.742;2023-05-23T15:08:23;4.45;;;3.35;;
80235;SDS011;69543;42.138;24.742;2023-05-23T15:10:49;4.22;;;3.40;;
80235;SDS011;69543;42.138;24.742;2023-05-23T15:13:15;3.83;;;3.03;;
80235;SDS011;69543;42.138;24.742;2023-05-23T15:15:41;3.90;;;3.25;;
80235;SDS011;69543;42.138;24.742;2023-05-23T15:18:06;3.58;;;3.10;;
80235;SDS011;69543;42.138;24.742;2023-05-23T15:20:35;4.53;;;3.35;;
80235;SDS011;69543;42.138;24.742;2023-05-23T15:23:02;5.25;;;3.17;;
80235;SDS011;69543;42.138;24.742;2023-05-23T15:25:28;4.22;;;3.17;;
80235;SDS011;69543;42.138;24.742;2023-05-23T15:27:54;4.68;;;3.13;;
80235;SDS011;69543;42.138;24.742;2023-05-23T15:30:20;4.78;;;3.10;;
80235;SDS011;69543;42.138;24.742;2023-05-23T15:32:46;3.83;;;3.40;;
80235;SDS011;69543;42.138;24.742;2023-05-23T15:35:12;4.10;;;3.22;;
80235;SDS011;69543;42.138;24.742;2023-05-23T15:37:38;4.47;;;3.10;;
80235;SDS011;69543;42.138;24.742;2023-05-23T15:40:05;4.95;;;3.40;;
80235;SDS011;69543;42.138;24.742;2023-05-23T15:42:30;4.30;;;3.22;;
80235;SDS011;69543;42.138;24.742;2023-05-23T15:44:56;3.95;;;3.22;;
80235;SDS011;69543;42.138;24.742;2023-05-23T15:47:22;5.10;;;3.40;;
80235;SDS011;69543;42.138;24.742;2023-05-23T15:49:47;3.97;;;3.30;;
80235;SDS011;69543;42.138;24.742;2023-05-23T15:52:13;3.95;;;3.08;;
80235;SDS011;69543;42.138;24.742;2023-05-23T16:01:11;3.65;;;2.88;;
80235;SDS011;69543;42.138;24.742;2023-05-23T16:03:37;4.43;;;3.42;;
80235;SDS011;69543;42.138;24.742;2023-05-23T16:12:53;4.18;;;3.20;;
80235;SDS011;69543;42.138;24.742;2023-05-23T16:18:50;3.97;;;3.03;;
80235;SDS011;69543;42.138;24.742;2023-05-23T16:21:17;4.03;;;3.30;;
80235;SDS011;69543;42.138;24.742;2023-05-23T16:23:45;4.00;;;3.28;;
80235;SDS011;69543;42.138;24.742;2023-05-23T16:26:13;4.00;;;2.90;;
80235;SDS011;69543;42.138;24.742;2023-05-23T16:28:40;3.35;;;2.83;;
80235;SDS011;69543;42.138;24.742;2023-05-23T16:31:07;4.03;;;3.00;;
80235;SDS011;69543;42.138;24.742;2023-05-23T16:33:40;4.72;;;3.15;;
80235;SDS011;69543;42.138;24.742;2023-05-23T16:36:09;4.18;;;2.90;;
80235;SDS011;69543;42.138;24.742;2023-05-23T16:45:10;3.25;;;2.70;;
80235;SDS011;69543;42.138;24.742;2023-05-23T16:47:36;5.55;;;3.10;;
80235;SDS011;69543;42.138;24.742;2023-05-23T16:50:01;3.38;;;2.78;;
80235;SDS011;69543;42.138;24.742;2023-05-23T16:52:28;3.45;;;2.90;;
80235;SDS011;69543;42.138;24.742;2023-05-23T16:54:54;3.13;;;2.85;;
80235;SDS011;69543;42.138;24.742;2023-05-23T17:00:43;4.53;;;3.33;;
80235;SDS011;69543;42.138;24.742;2023-05-23T17:03:43;3.92;;;2.95;;
80235;SDS011;69543;42.138;24.742;2023-05-23T17:06:33;4.28;;;3.25;;
80235;SDS011;69543;42.138;24.742;2023-05-23T17:09:15;4.13;;;2.95;;
80235;SDS011;69543;42.138;24.742;2023-05-23T17:11:42;3.60;;;3.30;;
80235;SDS011;69543;42.138;24.742;2023-05-23T17:14:07;3.70;;;2.90;;
80235;SDS011;69543;42.138;24.742;2023-05-23T17:16:33;3.15;;;2.78;;
80235;SDS011;69543;42.138;24.742;2023-05-23T17:18:59;3.35;;;2.90;;
80235;SDS011;69543;42.138;24.742;2023-05-23T17:21:25;3.58;;;3.20;;
80235;SDS011;69543;42.138;24.742;2023-05-23T17:23:51;3.72;;;2.80;;
80235;SDS011;69543;42.138;24.742;2023-05-23T17:26:18;5.20;;;2.92;;
80235;SDS011;69543;42.138;24.742;2023-05-23T17:28:43;3.63;;;2.90;;
80235;SDS011;69543;42.138;24.742;2023-05-23T17:31:10;3.20;;;2.90;;
80235;SDS011;69543;42.138;24.742;2023-05-23T17:33:35;4.82;;;2.88;;
80235;SDS011;69543;42.138;24.742;2023-05-23T17:36:01;3.00;;;2.70;;
80235;SDS011;69543;42.138;24.742;2023-05-23T17:38:27;4.28;;;2.90;;
80235;SDS011;69543;42.138;24.742;2023-05-23T17:40:53;3.47;;;2.90;;
80235;SDS011;69543;42.138;24.742;2023-05-23T17:43:18;3.20;;;2.90;;
80235;SDS011;69543;42.138;24.742;2023-05-23T17:45:44;3.17;;;2.75;;